createdAt,value
2017-09-17T00:01:32.508Z,28.27
2017-09-17T00:04:00.311Z,31.47
2017-09-17T00:06:28.148Z,33.17
2017-09-17T00:08:55.973Z,27.77
2017-09-17T00:11:23.812Z,34.87
2017-09-17T00:13:51.645Z,36.37
2017-09-17T00:16:19.449Z,31.47
2017-09-17T00:18:47.251Z,35.90
2017-09-17T00:21:15.844Z,29.50
2017-09-17T00:23:43.652Z,29.30
2017-09-17T00:26:11.485Z,30.63
2017-09-17T00:28:39.298Z,32.77
2017-09-17T00:31:07.130Z,25.37
2017-09-17T00:33:34.937Z,31.60
2017-09-17T00:36:02.760Z,27.70
2017-09-17T00:38:30.565Z,25.70
2017-09-17T00:40:58.361Z,26.57
2017-09-17T00:43:26.164Z,32.20
2017-09-17T00:45:53.993Z,31.30
2017-09-17T00:48:21.809Z,31.80
2017-09-17T00:50:49.616Z,34.03
2017-09-17T00:53:17.437Z,28.57
2017-09-17T00:55:45.233Z,30.50
2017-09-17T00:58:13.054Z,24.57
2017-09-17T01:00:40.860Z,32.87
2017-09-17T01:03:08.683Z,31.17
2017-09-17T01:05:36.496Z,23.73
2017-09-17T01:08:04.328Z,29.40
2017-09-17T01:10:32.137Z,27.50
2017-09-17T01:12:59.949Z,27.73
2017-09-17T01:15:27.795Z,30.43
2017-09-17T01:17:55.601Z,33.23
2017-09-17T01:20:23.445Z,29.00
2017-09-17T01:22:52.464Z,28.40
2017-09-17T01:25:20.276Z,26.10
2017-09-17T01:27:48.088Z,32.97
2017-09-17T01:30:15.900Z,34.57
2017-09-17T01:32:43.729Z,28.60
2017-09-17T01:35:11.558Z,32.77
2017-09-17T01:37:39.376Z,39.77
2017-09-17T01:40:07.177Z,33.40
2017-09-17T01:42:34.996Z,28.83
2017-09-17T01:45:02.812Z,31.67
2017-09-17T01:47:30.649Z,33.20
2017-09-17T01:49:58.525Z,32.20
2017-09-17T01:52:26.340Z,33.47
2017-09-17T01:54:54.147Z,28.90
2017-09-17T01:57:21.997Z,28.17
2017-09-17T01:59:49.821Z,31.60
2017-09-17T02:02:17.651Z,31.67
2017-09-17T02:04:45.486Z,31.30
2017-09-17T02:07:13.326Z,27.67
2017-09-17T02:09:41.165Z,28.93
2017-09-17T02:12:09.031Z,31.30
2017-09-17T02:14:36.850Z,32.83
2017-09-17T02:17:04.672Z,31.60
2017-09-17T02:19:32.526Z,27.60
2017-09-17T02:22:00.348Z,35.23
2017-09-17T02:24:28.185Z,29.57
2017-09-17T02:26:55.997Z,33.03
2017-09-17T02:29:23.847Z,33.10
2017-09-17T02:31:51.666Z,34.67
2017-09-17T02:34:19.485Z,30.50
2017-09-17T02:36:47.337Z,28.47
2017-09-17T02:39:15.158Z,31.13
2017-09-17T02:41:42.969Z,30.83
2017-09-17T02:44:10.904Z,30.43
2017-09-17T02:46:38.717Z,29.20
2017-09-17T02:49:06.533Z,23.47
2017-09-17T02:51:34.377Z,26.17
2017-09-17T02:54:02.205Z,28.50
2017-09-17T02:56:30.027Z,27.63
2017-09-17T02:58:57.871Z,29.00
2017-09-17T03:01:25.696Z,31.97
2017-09-17T03:03:53.509Z,32.50
2017-09-17T03:06:21.333Z,28.10
2017-09-17T03:08:49.148Z,33.93
2017-09-17T03:11:16.973Z,65.43
2017-09-17T03:13:44.774Z,30.03
2017-09-17T03:16:12.597Z,29.83
2017-09-17T03:18:40.417Z,26.97
2017-09-17T03:21:08.216Z,38.00
2017-09-17T03:23:36.028Z,41.73
2017-09-17T03:26:03.836Z,26.10
2017-09-17T03:28:31.660Z,25.80
2017-09-17T03:30:59.518Z,25.70
2017-09-17T03:33:27.361Z,29.80
2017-09-17T03:35:55.216Z,23.60
2017-09-17T03:38:23.040Z,24.27
2017-09-17T03:40:50.841Z,29.00
2017-09-17T03:43:18.693Z,27.93
2017-09-17T03:45:46.509Z,27.20
2017-09-17T03:48:14.341Z,33.10
2017-09-17T03:50:42.178Z,28.77
2017-09-17T03:53:10.000Z,21.93
2017-09-17T03:55:37.821Z,25.87
2017-09-17T03:58:05.631Z,29.93
2017-09-17T04:00:33.457Z,28.67
2017-09-17T04:03:01.417Z,21.57
2017-09-17T04:05:29.255Z,29.20
2017-09-17T04:07:57.088Z,22.63
2017-09-17T04:10:24.902Z,30.47
2017-09-17T04:12:52.704Z,27.50
2017-09-17T04:15:20.577Z,27.20
2017-09-17T04:17:48.390Z,23.90
2017-09-17T04:20:16.240Z,26.47
2017-09-17T04:22:44.070Z,32.20
2017-09-17T04:25:11.902Z,26.40
2017-09-17T04:27:39.713Z,31.23
2017-09-17T04:30:07.525Z,29.70
2017-09-17T04:32:35.345Z,28.70
2017-09-17T04:35:03.189Z,29.33
2017-09-17T04:37:31.001Z,31.67
2017-09-17T04:39:58.814Z,26.90
2017-09-17T04:42:26.655Z,32.53
2017-09-17T04:44:54.473Z,28.37
2017-09-17T04:47:22.318Z,26.63
2017-09-17T04:49:50.125Z,29.77
2017-09-17T04:52:17.945Z,25.20
2017-09-17T04:54:45.745Z,26.33
2017-09-17T04:57:13.577Z,33.73
2017-09-17T04:59:41.420Z,24.70
2017-09-17T05:02:09.261Z,23.60
2017-09-17T05:04:37.071Z,27.40
2017-09-17T05:07:04.889Z,26.07
2017-09-17T05:09:32.720Z,24.73
2017-09-17T05:12:00.565Z,27.60
2017-09-17T05:14:28.405Z,27.33
2017-09-17T05:16:56.261Z,37.00
2017-09-17T05:19:24.081Z,27.57
2017-09-17T05:21:51.900Z,27.87
2017-09-17T05:24:19.727Z,25.37
2017-09-17T05:26:47.517Z,31.03
2017-09-17T05:29:15.336Z,25.93
2017-09-17T05:31:43.142Z,27.63
2017-09-17T05:34:10.972Z,27.10
2017-09-17T05:36:38.836Z,26.97
2017-09-17T05:39:06.684Z,31.77
2017-09-17T05:41:34.548Z,27.90
2017-09-17T05:44:02.472Z,23.53
2017-09-17T05:46:30.311Z,25.83
2017-09-17T05:48:58.170Z,25.60
2017-09-17T05:51:26.030Z,30.10
2017-09-17T05:53:53.853Z,24.53
2017-09-17T05:56:21.667Z,22.27
2017-09-17T05:58:49.502Z,20.40
2017-09-17T06:01:17.321Z,21.70
2017-09-17T06:03:45.142Z,21.50
2017-09-17T06:06:12.959Z,24.07
2017-09-17T06:08:40.773Z,21.60
2017-09-17T06:11:08.588Z,21.83
2017-09-17T06:13:36.400Z,22.73
2017-09-17T06:16:04.222Z,20.47
2017-09-17T06:18:32.053Z,21.57
2017-09-17T06:20:59.914Z,20.00
2017-09-17T06:23:27.743Z,28.90
2017-09-17T06:25:55.557Z,23.37
2017-09-17T06:28:23.376Z,19.97
2017-09-17T06:30:51.205Z,16.90
2017-09-17T06:33:19.008Z,23.57
2017-09-17T06:35:46.829Z,19.37
2017-09-17T06:38:14.637Z,20.90
2017-09-17T06:40:42.463Z,20.97
2017-09-17T06:43:10.276Z,25.63
2017-09-17T06:45:38.112Z,23.03
2017-09-17T06:48:05.941Z,20.03
2017-09-17T06:50:33.776Z,22.20
2017-09-17T06:53:01.602Z,19.30
2017-09-17T06:55:29.457Z,21.90
2017-09-17T06:57:57.316Z,25.37
2017-09-17T07:00:25.147Z,17.90
2017-09-17T07:02:52.957Z,18.87
2017-09-17T07:05:20.753Z,22.77
2017-09-17T07:07:48.565Z,19.07
2017-09-17T07:10:16.393Z,17.43
2017-09-17T07:12:44.266Z,25.03
2017-09-17T07:15:12.121Z,22.80
2017-09-17T07:17:39.932Z,21.40
2017-09-17T07:20:07.793Z,22.60
2017-09-17T07:22:35.621Z,21.37
2017-09-17T07:25:03.424Z,24.40
2017-09-17T07:27:31.292Z,19.63
2017-09-17T07:29:59.125Z,22.80
2017-09-17T07:32:26.933Z,22.27
2017-09-17T07:34:54.778Z,22.97
2017-09-17T07:37:22.605Z,21.60
2017-09-17T07:39:50.507Z,24.93
2017-09-17T07:42:18.349Z,18.90
2017-09-17T07:44:46.157Z,25.33
2017-09-17T07:47:13.981Z,19.43
2017-09-17T07:49:41.809Z,20.83
2017-09-17T07:52:09.620Z,25.73
2017-09-17T07:54:37.432Z,22.53
2017-09-17T07:57:05.278Z,24.63
2017-09-17T07:59:33.229Z,19.43
2017-09-17T08:02:01.068Z,23.10
2017-09-17T08:04:28.941Z,23.07
2017-09-17T08:06:56.795Z,25.00
2017-09-17T08:09:25.384Z,24.73
2017-09-17T08:11:53.252Z,21.67
2017-09-17T08:14:21.120Z,24.67
2017-09-17T08:16:48.934Z,23.80
2017-09-17T08:19:16.794Z,22.17
2017-09-17T08:21:44.669Z,37.30
2017-09-17T08:24:12.508Z,20.73
2017-09-17T08:26:40.345Z,19.50
2017-09-17T08:29:08.175Z,22.23
2017-09-17T08:31:36.016Z,21.90
2017-09-17T08:34:03.837Z,19.00
2017-09-17T08:36:32.098Z,21.70
2017-09-17T08:38:59.965Z,20.30
2017-09-17T08:41:27.857Z,21.40
2017-09-17T08:43:55.681Z,25.07
2017-09-17T08:46:23.497Z,25.10
2017-09-17T08:48:51.317Z,28.87
2017-09-17T08:51:19.128Z,25.43
2017-09-17T08:53:47.006Z,22.90
2017-09-17T08:56:14.804Z,26.17
2017-09-17T08:58:42.625Z,27.10
2017-09-17T09:01:10.464Z,22.50
2017-09-17T09:03:38.332Z,28.23
2017-09-17T09:06:06.163Z,27.83
2017-09-17T09:08:33.987Z,34.00
2017-09-17T09:11:01.794Z,20.87
2017-09-17T09:13:29.682Z,27.73
2017-09-17T09:15:57.506Z,24.30
2017-09-17T09:18:25.333Z,24.10
2017-09-17T09:20:53.213Z,25.33
2017-09-17T09:23:21.029Z,24.70
2017-09-17T09:25:48.873Z,23.20
2017-09-17T09:28:16.728Z,23.50
2017-09-17T09:30:44.576Z,16.87
2017-09-17T09:33:12.374Z,24.77
2017-09-17T09:35:40.192Z,19.50
2017-09-17T09:38:08.348Z,22.17
2017-09-17T09:40:36.288Z,16.70
2017-09-17T09:43:04.185Z,21.77
2017-09-17T09:45:32.061Z,21.10
2017-09-17T09:47:59.923Z,17.17
2017-09-17T09:50:27.791Z,17.30
2017-09-17T09:52:55.615Z,20.03
2017-09-17T09:55:23.449Z,19.83
2017-09-17T09:57:51.313Z,19.17
2017-09-17T10:00:19.134Z,18.67
2017-09-17T10:02:47.009Z,15.40
2017-09-17T10:05:14.873Z,18.80
2017-09-17T10:07:42.705Z,22.27
2017-09-17T10:10:10.511Z,15.60
2017-09-17T10:12:38.360Z,15.73
2017-09-17T10:15:06.276Z,13.67
2017-09-17T10:17:34.141Z,13.63
2017-09-17T10:20:02.009Z,15.20
2017-09-17T10:22:30.028Z,9.70
2017-09-17T10:24:57.865Z,10.23
2017-09-17T10:27:25.680Z,10.23
2017-09-17T10:29:53.482Z,13.37
2017-09-17T10:32:21.332Z,10.57
2017-09-17T10:34:49.228Z,11.73
2017-09-17T10:37:17.054Z,9.47
2017-09-17T10:39:44.937Z,11.20
2017-09-17T10:42:12.756Z,10.87
2017-09-17T10:44:40.573Z,10.87
2017-09-17T10:47:08.428Z,8.63
2017-09-17T10:49:36.403Z,9.60
2017-09-17T10:52:04.365Z,11.37
2017-09-17T10:54:32.188Z,10.77
2017-09-17T10:57:00.057Z,10.03
2017-09-17T10:59:27.861Z,9.57
2017-09-17T11:01:55.680Z,12.17
2017-09-17T11:04:23.508Z,10.50
2017-09-17T11:06:51.357Z,10.67
2017-09-17T11:09:19.152Z,14.93
2017-09-17T11:11:46.964Z,15.23
2017-09-17T11:14:14.776Z,10.57
2017-09-17T11:16:42.568Z,14.33
2017-09-17T11:19:10.420Z,14.03
2017-09-17T11:21:38.262Z,13.90
2017-09-17T11:24:06.108Z,13.67
2017-09-17T11:26:33.900Z,17.67
2017-09-17T11:29:03.059Z,22.87
2017-09-17T11:31:30.917Z,15.53
2017-09-17T11:33:58.756Z,16.40
2017-09-17T11:36:26.596Z,17.67
2017-09-17T11:38:54.460Z,16.00
2017-09-17T11:41:22.307Z,21.03
2017-09-17T11:43:50.116Z,19.67
2017-09-17T11:46:17.937Z,20.70
2017-09-17T11:48:45.782Z,20.07
2017-09-17T11:51:13.597Z,18.07
2017-09-17T11:53:41.423Z,29.13
2017-09-17T11:56:09.241Z,24.70
2017-09-17T11:58:37.056Z,23.23
2017-09-17T12:01:04.841Z,17.60
2017-09-17T12:03:32.646Z,12.50
2017-09-17T12:06:00.457Z,17.00
2017-09-17T12:08:28.338Z,20.00
2017-09-17T12:10:56.142Z,24.70
2017-09-17T12:13:23.970Z,28.77
2017-09-17T12:15:51.810Z,28.87
2017-09-17T12:18:19.665Z,28.10
2017-09-17T12:20:47.490Z,20.60
2017-09-17T12:23:15.300Z,24.63
2017-09-17T12:25:43.106Z,20.93
2017-09-17T12:28:10.946Z,21.00
2017-09-17T12:30:38.753Z,23.07
2017-09-17T12:33:06.556Z,30.23
2017-09-17T12:35:34.389Z,32.30
2017-09-17T12:38:02.195Z,37.53
2017-09-17T12:40:29.998Z,29.10
2017-09-17T12:42:57.824Z,27.70
2017-09-17T12:45:25.653Z,36.20
2017-09-17T12:47:53.450Z,33.00
2017-09-17T12:50:21.252Z,13.67
2017-09-17T12:52:50.057Z,16.53
2017-09-17T12:55:17.882Z,9.50
2017-09-17T12:57:45.697Z,19.83
2017-09-17T13:00:13.511Z,14.67
2017-09-17T13:02:41.328Z,16.07
2017-09-17T13:05:09.176Z,16.10
2017-09-17T13:07:37.009Z,21.43
2017-09-17T13:10:04.822Z,23.70
2017-09-17T13:12:32.636Z,24.10
2017-09-17T13:15:00.504Z,18.70
2017-09-17T13:17:28.327Z,20.73
2017-09-17T13:19:56.143Z,23.90
2017-09-17T13:22:23.953Z,19.37
2017-09-17T13:24:51.768Z,20.83
2017-09-17T13:27:19.588Z,20.10
2017-09-17T13:29:48.461Z,24.97
2017-09-17T13:32:16.401Z,26.97
2017-09-17T13:34:44.257Z,37.27
2017-09-17T13:37:12.080Z,22.77
2017-09-17T13:39:39.913Z,21.00
2017-09-17T13:42:07.743Z,19.47
2017-09-17T13:44:35.581Z,22.87
2017-09-17T13:47:03.424Z,23.80
2017-09-17T13:49:31.277Z,20.90
2017-09-17T13:51:59.121Z,25.10
2017-09-17T13:54:26.933Z,26.93
2017-09-17T13:56:54.784Z,26.10
2017-09-17T13:59:22.620Z,19.70
2017-09-17T14:02:05.441Z,22.50
2017-09-17T14:04:35.124Z,27.17
2017-09-17T14:07:03.789Z,23.90
2017-09-17T14:09:31.632Z,27.53
2017-09-17T14:11:59.496Z,22.87
2017-09-17T14:14:27.312Z,25.50
2017-09-17T14:16:55.144Z,26.77
2017-09-17T14:19:23.085Z,21.60
2017-09-17T14:21:50.960Z,20.93
2017-09-17T14:24:18.840Z,17.53
2017-09-17T14:26:46.664Z,24.07
2017-09-17T14:29:14.513Z,19.57
2017-09-17T14:31:42.436Z,17.57
2017-09-17T14:34:11.155Z,25.20
2017-09-17T14:36:39.043Z,21.00
2017-09-17T14:39:06.928Z,17.33
2017-09-17T14:41:34.759Z,24.47
2017-09-17T14:44:02.633Z,21.07
2017-09-17T14:46:30.459Z,24.20
2017-09-17T14:48:58.261Z,26.80
2017-09-17T14:51:26.120Z,22.50
2017-09-17T14:53:53.967Z,26.70
2017-09-17T14:56:21.800Z,23.93
2017-09-17T14:58:49.618Z,19.30
2017-09-17T15:01:17.458Z,28.13
2017-09-17T15:03:45.285Z,21.03
2017-09-17T15:06:13.322Z,28.63
2017-09-17T15:08:41.172Z,23.40
2017-09-17T15:11:09.075Z,22.00
2017-09-17T15:13:36.973Z,28.67
2017-09-17T15:16:04.957Z,30.50
2017-09-17T15:18:32.788Z,23.40
2017-09-17T15:21:00.602Z,20.67
2017-09-17T15:23:28.438Z,21.03
2017-09-17T15:25:56.240Z,24.47
2017-09-17T15:28:24.068Z,17.37
2017-09-17T15:30:51.887Z,19.23
2017-09-17T15:33:19.726Z,17.87
2017-09-17T15:35:47.568Z,22.03
2017-09-17T15:38:15.951Z,23.53
2017-09-17T15:40:43.839Z,24.97
2017-09-17T15:43:11.710Z,27.73
2017-09-17T15:45:39.537Z,37.53
2017-09-17T15:48:07.376Z,22.80
2017-09-17T15:50:35.291Z,13.10
2017-09-17T15:53:03.224Z,14.33
2017-09-17T15:55:31.038Z,10.80
2017-09-17T15:57:58.973Z,12.27
2017-09-17T16:00:26.900Z,13.37
2017-09-17T16:02:55.622Z,17.77
2017-09-17T16:05:24.396Z,20.43
2017-09-17T16:07:53.134Z,26.50
2017-09-17T16:10:21.177Z,16.10
2017-09-17T16:12:48.989Z,22.33
2017-09-17T16:15:16.817Z,17.63
2017-09-17T16:17:44.621Z,18.57
2017-09-17T16:20:12.469Z,19.97
2017-09-17T16:22:40.297Z,17.90
2017-09-17T16:25:08.236Z,19.67
2017-09-17T16:27:36.104Z,18.47
2017-09-17T16:30:04.004Z,17.83
2017-09-17T16:32:31.841Z,27.97
2017-09-17T16:34:59.722Z,26.93
2017-09-17T16:37:27.557Z,23.67
2017-09-17T16:39:55.413Z,25.90
2017-09-17T16:42:23.220Z,23.17
2017-09-17T16:44:51.041Z,30.27
2017-09-17T16:47:18.895Z,30.57
2017-09-17T16:49:46.852Z,31.20
2017-09-17T16:52:14.700Z,29.73
2017-09-17T16:54:42.512Z,37.90
2017-09-17T16:57:10.381Z,34.10
2017-09-17T16:59:38.214Z,36.43
2017-09-17T17:02:06.349Z,34.43
2017-09-17T17:04:34.301Z,33.97
2017-09-17T17:07:02.225Z,31.57
2017-09-17T17:09:30.227Z,36.90
2017-09-17T17:11:58.096Z,37.63
2017-09-17T17:14:25.945Z,37.03
2017-09-17T17:16:53.792Z,36.47
2017-09-17T17:19:21.616Z,37.47
2017-09-17T17:21:49.480Z,39.23
2017-09-17T17:24:17.372Z,40.20
2017-09-17T17:26:45.220Z,41.03
2017-09-17T17:29:13.085Z,41.40
2017-09-17T17:31:40.921Z,37.37
2017-09-17T17:34:09.805Z,39.67
2017-09-17T17:36:37.652Z,40.93
2017-09-17T17:39:07.553Z,41.83
2017-09-17T17:41:35.407Z,42.87
2017-09-17T17:44:03.294Z,46.00
2017-09-17T17:46:31.229Z,40.50
2017-09-17T17:48:59.159Z,40.10
2017-09-17T17:51:27.336Z,44.80
2017-09-17T17:53:55.168Z,41.50
2017-09-17T17:56:22.997Z,40.53
2017-09-17T17:58:50.818Z,39.30
2017-09-17T18:01:18.644Z,39.20
2017-09-17T18:03:46.452Z,43.70
2017-09-17T18:06:14.273Z,42.30
2017-09-17T18:08:42.110Z,44.43
2017-09-17T18:11:09.961Z,42.27
2017-09-17T18:13:37.881Z,41.13
2017-09-17T18:16:05.732Z,35.23
2017-09-17T18:18:33.566Z,41.27
2017-09-17T18:21:01.385Z,49.83
2017-09-17T18:23:29.229Z,44.60
2017-09-17T18:25:57.052Z,48.63
2017-09-17T18:28:24.879Z,39.97
2017-09-17T18:30:52.709Z,35.63
2017-09-17T18:33:20.544Z,41.60
2017-09-17T18:35:48.393Z,38.57
2017-09-17T18:38:16.213Z,37.23
2017-09-17T18:40:44.133Z,47.80
2017-09-17T18:43:11.932Z,38.13
2017-09-17T18:45:39.756Z,36.17
2017-09-17T18:48:07.582Z,38.60
2017-09-17T18:50:41.826Z,42.67
2017-09-17T18:53:09.634Z,34.30
2017-09-17T18:55:37.461Z,39.23
2017-09-17T18:58:05.301Z,33.30
2017-09-17T19:00:33.125Z,39.50
2017-09-17T19:03:00.976Z,39.10
2017-09-17T19:05:28.804Z,39.03
2017-09-17T19:07:56.724Z,38.90
2017-09-17T19:10:24.541Z,35.83
2017-09-17T19:12:52.377Z,31.17
2017-09-17T19:15:20.208Z,37.07
2017-09-17T19:17:48.054Z,34.13
2017-09-17T19:20:15.892Z,63.67
2017-09-17T19:22:43.713Z,36.80
2017-09-17T19:25:11.756Z,33.03
2017-09-17T19:27:39.593Z,39.43
2017-09-17T19:30:07.412Z,34.43
2017-09-17T19:32:35.338Z,37.87
2017-09-17T19:35:03.201Z,33.33
2017-09-17T19:37:31.049Z,33.73
2017-09-17T19:39:58.916Z,30.40
2017-09-17T19:42:26.709Z,35.60
2017-09-17T19:44:54.540Z,33.27
2017-09-17T19:47:22.353Z,35.23
2017-09-17T19:49:50.178Z,42.47
2017-09-17T19:52:19.990Z,38.20
2017-09-17T19:54:47.903Z,44.60
2017-09-17T19:57:15.735Z,40.33
2017-09-17T19:59:43.557Z,47.17
2017-09-17T20:02:11.401Z,42.80
2017-09-17T20:04:39.238Z,42.40
2017-09-17T20:07:07.126Z,42.83
2017-09-17T20:09:34.969Z,37.67
2017-09-17T20:12:02.805Z,38.00
2017-09-17T20:14:30.666Z,42.67
2017-09-17T20:16:58.480Z,45.30
2017-09-17T20:19:26.378Z,36.97
2017-09-17T20:21:54.201Z,36.57
2017-09-17T20:24:22.018Z,38.90
2017-09-17T20:26:49.845Z,38.20
2017-09-17T20:29:17.723Z,41.87
2017-09-17T20:31:45.565Z,41.53
2017-09-17T20:34:13.352Z,38.33
2017-09-17T20:36:41.196Z,47.20
2017-09-17T20:39:09.008Z,39.37
2017-09-17T20:41:36.848Z,46.47
2017-09-17T20:44:04.668Z,48.77
2017-09-17T20:46:32.544Z,49.33
2017-09-17T20:49:00.348Z,47.03
2017-09-17T20:51:28.189Z,54.93
2017-09-17T20:53:56.004Z,52.00
2017-09-17T20:56:23.821Z,40.77
2017-09-17T20:58:51.637Z,43.73
2017-09-17T21:01:19.448Z,55.03
2017-09-17T21:03:47.260Z,45.93
2017-09-17T21:06:15.066Z,52.23
2017-09-17T21:08:42.901Z,41.77
2017-09-17T21:11:10.709Z,44.83
2017-09-17T21:13:38.522Z,50.40
2017-09-17T21:16:06.329Z,48.43
2017-09-17T21:18:34.167Z,45.40
2017-09-17T21:21:02.019Z,46.20
2017-09-17T21:23:29.884Z,48.77
2017-09-17T21:25:57.709Z,58.23
2017-09-17T21:28:25.553Z,45.63
2017-09-17T21:30:53.401Z,57.33
2017-09-17T21:33:21.332Z,42.33
2017-09-17T21:35:49.210Z,46.30
2017-09-17T21:38:17.054Z,51.27
2017-09-17T21:40:44.936Z,51.30
2017-09-17T21:43:12.806Z,49.47
2017-09-17T21:45:40.732Z,53.27
2017-09-17T21:48:08.594Z,52.40
2017-09-17T21:50:36.511Z,55.73
2017-09-17T21:53:04.331Z,47.77
2017-09-17T21:55:32.286Z,49.80
2017-09-17T21:58:00.167Z,45.73
2017-09-17T22:00:28.053Z,53.73
2017-09-17T22:02:56.019Z,45.50
2017-09-17T22:05:25.092Z,44.73
2017-09-17T22:07:52.960Z,48.00
2017-09-17T22:10:20.865Z,45.60
2017-09-17T22:12:48.766Z,49.80
2017-09-17T22:15:16.729Z,44.17
2017-09-17T22:17:44.651Z,39.23
2017-09-17T22:20:12.562Z,41.13
2017-09-17T22:22:40.473Z,43.60
2017-09-17T22:25:08.349Z,39.30
2017-09-17T22:27:36.273Z,41.03
2017-09-17T22:30:04.172Z,42.60
2017-09-17T22:32:32.085Z,39.17
2017-09-17T22:35:00.064Z,34.20
2017-09-17T22:37:27.932Z,36.03
2017-09-17T22:39:55.762Z,29.60
2017-09-17T22:42:23.738Z,28.17
2017-09-17T22:44:51.614Z,30.70
2017-09-17T22:47:19.479Z,32.43
2017-09-17T22:49:47.374Z,27.20
2017-09-17T22:52:15.252Z,30.70
2017-09-17T22:54:43.206Z,34.50
2017-09-17T22:57:11.104Z,27.50
2017-09-17T22:59:39.027Z,25.70
2017-09-17T23:02:06.869Z,27.87
2017-09-17T23:04:34.746Z,26.13
2017-09-17T23:07:02.713Z,30.23
2017-09-17T23:09:30.527Z,26.67
2017-09-17T23:11:58.328Z,28.20
2017-09-17T23:14:26.145Z,25.63
2017-09-17T23:16:53.965Z,24.67
2017-09-17T23:19:21.786Z,24.70
2017-09-17T23:21:49.599Z,29.57
2017-09-17T23:24:17.433Z,23.87
2017-09-17T23:26:45.264Z,29.90
2017-09-17T23:29:13.072Z,28.70
2017-09-17T23:31:40.876Z,24.50
2017-09-17T23:34:08.689Z,24.73
2017-09-17T23:36:36.521Z,31.37
2017-09-17T23:39:04.318Z,32.47
2017-09-17T23:41:32.142Z,28.90
2017-09-17T23:43:59.952Z,28.60
2017-09-17T23:46:27.790Z,27.80
2017-09-17T23:48:55.597Z,27.80
2017-09-17T23:51:23.425Z,35.17
2017-09-17T23:53:52.045Z,27.13
2017-09-17T23:56:19.976Z,28.80
2017-09-17T23:58:47.776Z,28.90
